createdAt,value
2016-12-22T00:00:59.035Z,0
2016-12-22T00:01:59.014Z,0
2016-12-22T00:02:58.722Z,0
2016-12-22T00:03:59.458Z,0
2016-12-22T00:04:59.981Z,0
2016-12-22T00:06:00.829Z,0
2016-12-22T00:06:59.811Z,0
2016-12-22T00:08:00.332Z,0
2016-12-22T00:08:59.060Z,0
2016-12-22T00:09:59.524Z,0
2016-12-22T00:10:59.519Z,0
2016-12-22T00:11:59.742Z,0
2016-12-22T00:12:59.036Z,0
2016-12-22T00:14:00.198Z,0
2016-12-22T00:14:59.147Z,0
2016-12-22T00:15:58.914Z,0
2016-12-22T00:16:59.612Z,0
2016-12-22T00:17:59.542Z,0
2016-12-22T00:18:58.900Z,0
2016-12-22T00:19:59.303Z,0
2016-12-22T00:21:00.103Z,0
2016-12-22T00:21:59.484Z,0
2016-12-22T00:22:59.909Z,0
2016-12-22T00:23:59.157Z,0
2016-12-22T00:24:59.408Z,0
2016-12-22T00:25:59.098Z,0
2016-12-22T00:27:00.226Z,0
2016-12-22T00:28:00.351Z,0
2016-12-22T00:29:00.529Z,0
2016-12-22T00:29:59.227Z,0
2016-12-22T00:30:59.615Z,0
2016-12-22T00:31:59.584Z,0
2016-12-22T00:33:00.837Z,0
2016-12-22T00:33:59.238Z,0
2016-12-22T00:34:59.612Z,0
2016-12-22T00:35:59.634Z,0
2016-12-22T00:36:59.772Z,0
2016-12-22T00:37:59.270Z,0
2016-12-22T00:38:59.945Z,0
2016-12-22T00:39:59.586Z,0
2016-12-22T00:40:59.299Z,0
2016-12-22T00:42:00.019Z,0
2016-12-22T00:43:00.230Z,0
2016-12-22T00:44:00.660Z,0
2016-12-22T00:44:59.842Z,0
2016-12-22T00:45:59.717Z,0
2016-12-22T00:46:59.502Z,0
2016-12-22T00:47:59.820Z,0
2016-12-22T00:49:00.344Z,0
2016-12-22T00:49:59.777Z,0
2016-12-22T00:50:59.226Z,0
2016-12-22T00:52:00.663Z,0
2016-12-22T00:53:00.388Z,0
2016-12-22T00:53:59.947Z,0
2016-12-22T00:55:00.557Z,0
2016-12-22T00:56:00.092Z,0
2016-12-22T00:57:01.344Z,0
2016-12-22T00:57:59.914Z,0
2016-12-22T00:58:59.948Z,0
2016-12-22T01:00:00.250Z,0
2016-12-22T01:00:59.645Z,0
2016-12-22T01:01:59.944Z,0
2016-12-22T01:03:00.390Z,0
2016-12-22T01:03:59.866Z,0
2016-12-22T01:04:59.738Z,0
2016-12-22T01:06:00.131Z,0
2016-12-22T01:06:59.571Z,0
2016-12-22T01:08:00.171Z,0
2016-12-22T01:09:00.267Z,0
2016-12-22T01:10:00.549Z,0
2016-12-22T01:11:00.377Z,0
2016-12-22T01:12:00.162Z,0
2016-12-22T01:13:00.395Z,0
2016-12-22T01:14:01.224Z,0
2016-12-22T01:15:00.330Z,0
2016-12-22T01:16:00.343Z,0
2016-12-22T01:17:00.866Z,0
2016-12-22T01:18:00.697Z,0
2016-12-22T01:18:59.652Z,0
2016-12-22T01:20:00.294Z,0
2016-12-22T01:21:00.388Z,0
2016-12-22T01:22:00.538Z,0
2016-12-22T01:23:00.352Z,0
2016-12-22T01:24:00.390Z,0
2016-12-22T01:24:59.832Z,0
2016-12-22T01:26:00.229Z,0
2016-12-22T01:27:01.543Z,0
2016-12-22T01:28:00.777Z,0
2016-12-22T01:29:00.714Z,0
2016-12-22T01:30:01.709Z,0
2016-12-22T01:31:00.682Z,0
2016-12-22T01:32:00.086Z,0
2016-12-22T01:33:00.709Z,0
2016-12-22T01:34:00.721Z,0
2016-12-22T01:35:01.129Z,0
2016-12-22T01:36:00.687Z,0
2016-12-22T01:37:01.528Z,0
2016-12-22T01:38:00.469Z,0
2016-12-22T01:39:00.204Z,0
2016-12-22T01:40:00.547Z,0
2016-12-22T01:41:00.648Z,0
2016-12-22T01:42:00.726Z,0
2016-12-22T01:43:01.031Z,0
2016-12-22T01:44:00.967Z,0
2016-12-22T01:45:00.721Z,0
2016-12-22T01:46:00.811Z,0
2016-12-22T01:47:00.523Z,0
2016-12-22T01:48:00.526Z,0
2016-12-22T01:49:00.618Z,0
2016-12-22T01:50:00.281Z,0
2016-12-22T01:51:00.899Z,0
2016-12-22T01:52:00.614Z,0
2016-12-22T01:53:01.474Z,0
2016-12-22T01:54:01.110Z,0
2016-12-22T01:55:00.525Z,0
2016-12-22T01:56:00.633Z,0
2016-12-22T01:57:01.414Z,0
2016-12-22T01:58:00.879Z,0
2016-12-22T01:59:00.027Z,0
2016-12-22T02:00:00.587Z,0
2016-12-22T02:01:00.434Z,0
2016-12-22T02:02:00.068Z,0
2016-12-22T02:03:00.841Z,0
2016-12-22T02:04:00.649Z,0
2016-12-22T02:05:01.404Z,0
2016-12-22T02:06:01.073Z,0
2016-12-22T02:07:01.634Z,0
2016-12-22T02:08:00.878Z,0
2016-12-22T02:09:00.555Z,0
2016-12-22T02:10:00.743Z,0
2016-12-22T02:11:01.059Z,0
2016-12-22T02:12:00.733Z,0
2016-12-22T02:13:01.254Z,0
2016-12-22T02:14:01.174Z,0
2016-12-22T02:15:01.279Z,0
2016-12-22T02:16:01.680Z,0
2016-12-22T02:17:01.164Z,0
2016-12-22T02:18:00.815Z,0
2016-12-22T02:19:00.667Z,0
2016-12-22T02:20:01.641Z,0
2016-12-22T02:21:01.219Z,0
2016-12-22T02:22:00.810Z,0
2016-12-22T02:23:00.600Z,0
2016-12-22T02:24:01.614Z,0
2016-12-22T02:25:01.623Z,0
2016-12-22T02:26:01.053Z,0
2016-12-22T02:27:00.900Z,0
2016-12-22T02:28:02.473Z,0
2016-12-22T02:29:01.091Z,0
2016-12-22T02:30:02.583Z,0
2016-12-22T02:31:01.525Z,0
2016-12-22T02:32:01.448Z,0
2016-12-22T02:33:02.475Z,0
2016-12-22T02:34:01.971Z,0
2016-12-22T02:35:02.267Z,0
2016-12-22T02:36:01.068Z,0
2016-12-22T02:37:00.945Z,0
2016-12-22T02:38:01.064Z,0
2016-12-22T02:39:01.250Z,0
2016-12-22T02:40:01.238Z,0
2016-12-22T02:41:00.939Z,0
2016-12-22T02:42:01.126Z,0
2016-12-22T02:43:01.165Z,0
2016-12-22T02:44:01.541Z,0
2016-12-22T02:45:01.225Z,0
2016-12-22T02:46:00.963Z,0
2016-12-22T02:47:01.457Z,0
2016-12-22T02:48:02.039Z,0
2016-12-22T02:49:02.013Z,0
2016-12-22T02:50:01.147Z,0
2016-12-22T02:51:01.249Z,0
2016-12-22T02:52:01.209Z,0
2016-12-22T02:53:01.947Z,0
2016-12-22T02:54:00.963Z,0
2016-12-22T02:55:01.486Z,0
2016-12-22T02:56:02.359Z,0
2016-12-22T02:57:02.124Z,0
2016-12-22T02:58:01.207Z,0
2016-12-22T02:59:01.710Z,0
2016-12-22T03:00:01.425Z,0
2016-12-22T03:01:01.383Z,0
2016-12-22T03:02:01.367Z,0
2016-12-22T03:03:01.787Z,0
2016-12-22T03:04:01.259Z,0
2016-12-22T03:05:01.931Z,0
2016-12-22T03:06:01.233Z,0
2016-12-22T03:07:01.298Z,0
2016-12-22T03:08:02.171Z,0
2016-12-22T03:09:01.480Z,0
2016-12-22T03:10:01.032Z,0
2016-12-22T03:11:01.561Z,0
2016-12-22T03:12:01.214Z,0
2016-12-22T03:13:01.016Z,0
2016-12-22T03:14:01.799Z,0
2016-12-22T03:15:01.184Z,0
2016-12-22T03:16:02.063Z,0
2016-12-22T03:17:01.537Z,0
2016-12-22T03:18:00.864Z,0
2016-12-22T03:19:01.211Z,0
2016-12-22T03:20:02.002Z,0
2016-12-22T03:21:01.755Z,0
2016-12-22T03:22:01.573Z,0
2016-12-22T03:23:02.342Z,0
2016-12-22T03:24:01.971Z,0
2016-12-22T03:25:02.057Z,0
2016-12-22T03:26:02.739Z,0
2016-12-22T03:27:02.208Z,0
2016-12-22T03:28:01.889Z,0
2016-12-22T03:29:01.520Z,0
2016-12-22T03:30:01.911Z,0
2016-12-22T03:31:01.432Z,0
2016-12-22T03:32:01.557Z,0
2016-12-22T03:33:01.550Z,0
2016-12-22T03:34:01.660Z,0
2016-12-22T03:35:02.750Z,0
2016-12-22T03:36:01.862Z,0
2016-12-22T03:37:01.915Z,0
2016-12-22T03:38:02.915Z,0
2016-12-22T03:39:01.524Z,0
2016-12-22T03:40:02.393Z,0
2016-12-22T03:41:02.958Z,0
2016-12-22T03:42:01.315Z,0
2016-12-22T03:43:01.965Z,0
2016-12-22T03:44:01.715Z,0
2016-12-22T03:45:01.796Z,0
2016-12-22T03:46:01.708Z,0
2016-12-22T03:47:01.378Z,0
2016-12-22T03:48:02.863Z,0
2016-12-22T03:49:01.783Z,0
2016-12-22T03:50:02.501Z,0
2016-12-22T03:51:02.827Z,0
2016-12-22T03:52:02.052Z,0
2016-12-22T03:53:03.186Z,0
2016-12-22T03:54:02.936Z,0
2016-12-22T03:55:02.693Z,0
2016-12-22T03:56:02.689Z,0
2016-12-22T03:57:02.700Z,0
2016-12-22T03:58:01.605Z,0
2016-12-22T03:59:02.256Z,0
2016-12-22T04:00:01.837Z,0
2016-12-22T04:01:01.793Z,0
2016-12-22T04:02:01.649Z,0
2016-12-22T04:03:01.364Z,0
2016-12-22T04:04:02.166Z,0
2016-12-22T04:05:01.883Z,0
2016-12-22T04:06:02.070Z,0
2016-12-22T04:07:02.780Z,0
2016-12-22T04:08:02.257Z,0
2016-12-22T04:09:02.750Z,0
2016-12-22T04:10:03.178Z,0
2016-12-22T04:11:02.079Z,0
2016-12-22T04:12:02.159Z,0
2016-12-22T04:13:02.272Z,0
2016-12-22T04:14:02.856Z,0
2016-12-22T04:15:02.412Z,0
2016-12-22T04:16:02.095Z,0
2016-12-22T04:17:03.175Z,0
2016-12-22T04:18:02.148Z,0
2016-12-22T04:19:02.963Z,0
2016-12-22T04:20:03.343Z,0
2016-12-22T04:21:02.096Z,0
2016-12-22T04:22:02.319Z,0
2016-12-22T04:23:02.026Z,0
2016-12-22T04:24:02.511Z,0
2016-12-22T04:25:02.716Z,0
2016-12-22T04:26:02.389Z,0
2016-12-22T04:27:03.220Z,0
2016-12-22T04:28:02.222Z,0
2016-12-22T04:29:02.424Z,0
2016-12-22T04:30:02.786Z,0
2016-12-22T04:31:02.143Z,0
2016-12-22T04:32:02.751Z,0
2016-12-22T04:33:02.831Z,0
2016-12-22T04:34:02.615Z,0
2016-12-22T04:35:02.412Z,0
2016-12-22T04:36:03.859Z,0
2016-12-22T04:37:03.062Z,0
2016-12-22T04:38:03.110Z,0
2016-12-22T04:39:02.030Z,0
2016-12-22T04:40:02.953Z,0
2016-12-22T04:41:01.927Z,0
2016-12-22T04:42:02.834Z,0
2016-12-22T04:43:02.779Z,0
2016-12-22T04:44:03.703Z,0
2016-12-22T04:45:03.769Z,0
2016-12-22T04:46:02.438Z,0
2016-12-22T04:47:03.350Z,0
2016-12-22T04:48:02.236Z,0
2016-12-22T04:49:02.360Z,0
2016-12-22T04:50:02.453Z,0
2016-12-22T04:51:02.881Z,0
2016-12-22T04:52:02.434Z,0
2016-12-22T04:53:02.224Z,0
2016-12-22T04:54:03.026Z,0
2016-12-22T04:55:03.395Z,0
2016-12-22T04:56:03.695Z,0
2016-12-22T04:57:02.843Z,0
2016-12-22T04:58:03.216Z,0
2016-12-22T04:59:02.755Z,0
2016-12-22T05:00:03.524Z,0
2016-12-22T05:01:02.865Z,0
2016-12-22T05:02:03.584Z,0
2016-12-22T05:03:03.583Z,0
2016-12-22T05:04:03.092Z,0
2016-12-22T05:05:03.251Z,0
2016-12-22T05:06:03.269Z,0
2016-12-22T05:07:03.062Z,0
2016-12-22T05:08:03.541Z,0
2016-12-22T05:09:03.048Z,0
2016-12-22T05:10:03.139Z,0
2016-12-22T05:11:03.881Z,0
2016-12-22T05:12:02.480Z,0
2016-12-22T05:13:02.902Z,0
2016-12-22T05:14:02.745Z,0
2016-12-22T05:15:05.955Z,0
2016-12-22T05:16:04.918Z,0
2016-12-22T05:17:06.844Z,0
2016-12-22T05:18:04.872Z,0
2016-12-22T05:19:06.088Z,0
2016-12-22T05:20:06.165Z,0
2016-12-22T05:21:04.524Z,0
2016-12-22T05:22:06.296Z,0
2016-12-22T05:23:05.110Z,0
2016-12-22T05:24:05.314Z,0
2016-12-22T05:25:07.416Z,0
2016-12-22T05:26:05.245Z,0
2016-12-22T05:27:05.237Z,0
2016-12-22T05:28:05.888Z,0
2016-12-22T05:29:05.620Z,0
2016-12-22T05:30:04.527Z,0
2016-12-22T05:31:04.104Z,0
2016-12-22T05:32:04.900Z,0
2016-12-22T05:33:04.541Z,0
2016-12-22T05:34:06.264Z,0
2016-12-22T05:35:04.766Z,0
2016-12-22T05:36:04.861Z,0
2016-12-22T05:37:06.400Z,0
2016-12-22T05:38:05.223Z,0
2016-12-22T05:39:07.874Z,0
2016-12-22T05:40:05.226Z,0
2016-12-22T05:41:04.951Z,0
2016-12-22T05:42:05.470Z,0
2016-12-22T05:43:04.387Z,0
2016-12-22T05:44:05.133Z,0
2016-12-22T05:45:06.555Z,0
2016-12-22T05:46:07.405Z,0
2016-12-22T05:47:06.944Z,0
2016-12-22T05:48:05.180Z,0
2016-12-22T05:49:06.726Z,0
2016-12-22T05:50:06.545Z,0
2016-12-22T05:51:04.197Z,0
2016-12-22T05:52:05.663Z,0
2016-12-22T05:53:04.730Z,0
2016-12-22T05:54:05.971Z,0
2016-12-22T05:55:06.309Z,0
2016-12-22T05:56:05.827Z,0
2016-12-22T05:57:07.365Z,0
2016-12-22T05:58:06.816Z,0
2016-12-22T05:59:05.441Z,0
2016-12-22T06:00:06.025Z,0
2016-12-22T06:01:05.328Z,0
2016-12-22T06:02:06.631Z,0
2016-12-22T06:03:06.544Z,0
2016-12-22T06:04:06.061Z,0
2016-12-22T06:05:06.216Z,0
2016-12-22T06:06:06.426Z,0
2016-12-22T06:07:05.596Z,0
2016-12-22T06:08:07.724Z,0
2016-12-22T06:09:07.189Z,0
2016-12-22T06:10:07.819Z,0
2016-12-22T06:11:06.388Z,0
2016-12-22T06:12:06.419Z,0
2016-12-22T06:13:06.430Z,0
2016-12-22T06:14:08.136Z,0
2016-12-22T06:15:06.342Z,0
2016-12-22T06:16:06.682Z,0
2016-12-22T06:17:07.503Z,0
2016-12-22T06:18:05.590Z,0
2016-12-22T06:19:07.973Z,0
2016-12-22T06:20:06.703Z,0
2016-12-22T06:21:07.375Z,0
2016-12-22T06:22:05.859Z,0
2016-12-22T06:23:05.906Z,0
2016-12-22T06:24:06.001Z,0
2016-12-22T06:25:03.955Z,0
2016-12-22T06:26:05.532Z,0
2016-12-22T06:27:06.337Z,0
2016-12-22T06:28:06.729Z,0
2016-12-22T06:29:04.029Z,0
2016-12-22T06:30:04.827Z,0
2016-12-22T06:31:05.337Z,0
2016-12-22T06:32:05.873Z,0
2016-12-22T06:34:04.301Z,0
2016-12-22T06:35:05.070Z,0
2016-12-22T06:36:07.174Z,0
2016-12-22T06:37:05.237Z,0
2016-12-22T06:38:06.430Z,0
2016-12-22T06:39:06.462Z,0
2016-12-22T06:40:04.737Z,0
2016-12-22T06:41:07.756Z,0
2016-12-22T06:42:05.486Z,0
2016-12-22T06:43:06.378Z,0
2016-12-22T06:44:07.239Z,0
2016-12-22T06:45:05.605Z,0
2016-12-22T06:46:06.571Z,0
2016-12-22T06:47:06.881Z,4
2016-12-22T06:48:06.335Z,0
2016-12-22T06:49:06.272Z,0
2016-12-22T06:50:07.600Z,4
2016-12-22T06:51:06.147Z,0
2016-12-22T06:52:05.469Z,0
2016-12-22T06:53:05.213Z,4
2016-12-22T06:54:06.062Z,4
2016-12-22T06:55:06.937Z,4
2016-12-22T06:56:06.748Z,4
2016-12-22T06:57:07.680Z,4
2016-12-22T06:58:09.071Z,4
2016-12-22T06:59:09.798Z,4
2016-12-22T07:00:06.345Z,4
2016-12-22T07:01:07.037Z,8
2016-12-22T07:02:08.057Z,8
2016-12-22T07:03:06.022Z,12
2016-12-22T07:04:06.028Z,12
2016-12-22T07:05:07.465Z,12
2016-12-22T07:06:05.218Z,20
2016-12-22T07:14:10.851Z,72
2016-12-22T07:16:31.462Z,96
2016-12-22T07:17:13.312Z,112
2016-12-22T23:00:57.687Z,0
2016-12-22T23:01:57.888Z,0
2016-12-22T23:02:56.892Z,0
2016-12-22T23:03:57.282Z,0
2016-12-22T23:04:56.359Z,0
2016-12-22T23:05:56.855Z,0
2016-12-22T23:06:56.804Z,0
2016-12-22T23:07:57.229Z,0
2016-12-22T23:08:56.660Z,0
2016-12-22T23:09:57.081Z,0
2016-12-22T23:10:57.423Z,0
2016-12-22T23:11:58.022Z,0
2016-12-22T23:12:57.956Z,0
2016-12-22T23:13:57.826Z,0
2016-12-22T23:14:57.338Z,0
2016-12-22T23:15:57.660Z,0
2016-12-22T23:16:57.475Z,0
2016-12-22T23:17:57.084Z,0
2016-12-22T23:18:57.092Z,0
2016-12-22T23:19:57.269Z,0
2016-12-22T23:20:57.687Z,0
2016-12-22T23:21:57.243Z,0
2016-12-22T23:22:56.910Z,0
2016-12-22T23:23:57.527Z,0
2016-12-22T23:24:57.218Z,0
2016-12-22T23:25:57.269Z,0
2016-12-22T23:26:57.265Z,0
2016-12-22T23:27:57.064Z,0
2016-12-22T23:28:56.804Z,0
2016-12-22T23:29:58.433Z,0
2016-12-22T23:30:57.606Z,0
2016-12-22T23:31:57.025Z,0
2016-12-22T23:32:57.284Z,0
2016-12-22T23:33:57.016Z,0
2016-12-22T23:34:57.116Z,0
2016-12-22T23:35:57.187Z,0
2016-12-22T23:36:58.014Z,0
2016-12-22T23:37:57.596Z,0
2016-12-22T23:38:57.754Z,0
2016-12-22T23:39:57.114Z,0
2016-12-22T23:40:57.062Z,0
2016-12-22T23:41:57.662Z,0
2016-12-22T23:42:57.785Z,0
2016-12-22T23:43:57.555Z,0
2016-12-22T23:44:57.566Z,0
2016-12-22T23:45:57.632Z,0
2016-12-22T23:46:58.002Z,0
2016-12-22T23:47:56.915Z,0
2016-12-22T23:48:57.580Z,0
2016-12-22T23:49:57.196Z,0
2016-12-22T23:50:57.229Z,0
2016-12-22T23:51:58.517Z,0
2016-12-22T23:52:57.743Z,0
2016-12-22T23:53:57.659Z,0
2016-12-22T23:54:58.292Z,0
2016-12-22T23:55:57.534Z,0
2016-12-22T23:56:57.832Z,0
2016-12-22T23:57:57.822Z,0
2016-12-22T23:58:57.830Z,0
2016-12-22T23:59:58.570Z,0
